Time;durP1;ratioP1;P1;durP2;ratioP2;P2;SDS_P1;SDS_P2;PMS_P1;PMS_P2;Temp;Humidity;BMP_temperature;BMP_pressure;BME280_temperature;BME280_humidity;BME280_pressure;Samples;Min_cycle;Max_cycle;Signal;HPM_P1;HPM_P2
2021/10/18 00:02:24;;;;;;;17.70;10.13;;;10.80;78.70;;;;;;5035548;28;20165;-91
2021/10/18 00:04:49;;;;;;;18.77;9.17;;;10.70;78.90;;;;;;5035733;28;20184;-91
2021/10/18 00:07:15;;;;;;;15.40;8.57;;;10.70;78.90;;;;;;5017740;28;20775;-91
2021/10/18 00:09:41;;;;;;;14.60;9.63;;;10.70;78.90;;;;;;5017774;28;20211;-91
2021/10/18 00:12:07;;;;;;;17.23;10.17;;;10.70;78.60;;;;;;5034732;28;20200;-91
2021/10/18 00:14:33;;;;;;;16.80;8.97;;;10.70;78.90;;;;;;5018090;28;20248;-91
2021/10/18 00:16:59;;;;;;;16.97;9.33;;;10.70;79.10;;;;;;5017521;28;20188;-91
2021/10/18 00:19:25;;;;;;;18.40;9.90;;;10.70;79.20;;;;;;5017456;28;20180;-91
2021/10/18 00:21:51;;;;;;;18.23;9.97;;;10.70;78.80;;;;;;5017649;28;20177;-91
2021/10/18 00:24:17;;;;;;;20.60;9.77;;;10.70;78.90;;;;;;5017348;28;20204;-91
2021/10/18 00:26:43;;;;;;;13.53;8.07;;;10.70;78.80;;;;;;5035395;28;20529;-91
2021/10/18 00:29:08;;;;;;;13.30;8.40;;;10.80;78.30;;;;;;5035248;28;20169;-91
2021/10/18 00:31:34;;;;;;;14.00;9.23;;;10.80;78.30;;;;;;5035003;28;20173;-91
2021/10/18 00:34:00;;;;;;;17.23;10.23;;;10.80;78.10;;;;;;5017152;28;20192;-91
2021/10/18 00:36:25;;;;;;;17.73;9.57;;;10.80;78.70;;;;;;5035497;28;20173;-91
2021/10/18 00:38:51;;;;;;;15.10;9.57;;;10.80;79.00;;;;;;5017214;28;20181;-90
2021/10/18 00:41:17;;;;;;;18.20;9.07;;;10.80;79.20;;;;;;5034749;28;20200;-90
2021/10/18 00:43:46;;;;;;;16.43;9.27;;;10.80;78.70;;;;;;5034683;28;20212;-91
2021/10/18 00:46:13;;;;;;;13.33;9.33;;;10.90;78.50;;;;;;5017053;28;20172;-91
2021/10/18 00:48:39;;;;;;;22.00;9.27;;;10.80;78.70;;;;;;5017517;28;20173;-90
2021/10/18 00:51:05;;;;;;;13.50;8.83;;;10.90;78.20;;;;;;5017022;28;20177;-91
2021/10/18 00:53:32;;;;;;;18.00;9.60;;;10.80;78.60;;;;;;5017118;28;20295;-91
2021/10/18 00:55:58;;;;;;;17.27;9.47;;;10.80;78.40;;;;;;5017103;28;20299;-91
2021/10/18 00:58:25;;;;;;;16.63;9.40;;;10.80;78.50;;;;;;5034756;28;20173;-91
2021/10/18 01:00:51;;;;;;;14.13;9.23;;;10.80;78.80;;;;;;5017002;28;20200;-90
2021/10/18 01:03:17;;;;;;;16.97;9.83;;;10.80;79.10;;;;;;5016906;28;20675;-91
2021/10/18 01:05:43;;;;;;;16.90;10.40;;;10.80;79.10;;;;;;5034336;28;20169;-90
2021/10/18 01:08:09;;;;;;;18.07;10.37;;;10.70;78.90;;;;;;5034486;28;20188;-90
2021/10/18 01:10:35;;;;;;;20.67;10.67;;;10.70;79.40;;;;;;5016606;28;20177;-90
2021/10/18 01:13:02;;;;;;;16.80;10.33;;;10.60;79.80;;;;;;5034042;28;20194;-91
2021/10/18 01:15:28;;;;;;;14.43;10.90;;;10.60;79.50;;;;;;5016393;28;20192;-91
2021/10/18 01:17:53;;;;;;;14.97;9.43;;;10.60;79.90;;;;;;5016564;28;20177;-90
2021/10/18 01:20:30;;;;;;;13.07;9.57;;;10.60;79.50;;;;;;5016403;28;20228;-91
2021/10/18 01:22:56;;;;;;;15.93;10.60;;;10.60;79.70;;;;;;5015420;28;20168;-91
2021/10/18 01:25:22;;;;;;;18.60;10.27;;;10.60;80.00;;;;;;5033954;28;20269;-90
2021/10/18 01:27:49;;;;;;;17.67;10.73;;;10.50;80.40;;;;;;5033947;28;20222;-91
2021/10/18 01:30:15;;;;;;;18.30;10.50;;;10.50;80.40;;;;;;5016276;28;20203;-91
2021/10/18 01:32:43;;;;;;;13.53;9.77;;;10.50;80.40;;;;;;5016555;28;20183;-90
2021/10/18 01:35:09;;;;;;;17.43;11.60;;;10.50;80.50;;;;;;5016052;28;20200;-91
2021/10/18 01:37:35;;;;;;;17.73;10.37;;;10.50;80.60;;;;;;5034169;28;20181;-90
2021/10/18 01:40:00;;;;;;;14.20;9.77;;;10.60;80.00;;;;;;5033667;28;20575;-90
2021/10/18 01:42:26;;;;;;;16.77;10.90;;;10.60;80.20;;;;;;5016002;28;20555;-90
2021/10/18 01:44:52;;;;;;;18.23;10.23;;;10.60;80.20;;;;;;5033607;28;20279;-90
2021/10/18 01:47:18;;;;;;;12.73;10.60;;;10.60;79.50;;;;;;5016005;28;20216;-90
2021/10/18 01:49:43;;;;;;;18.73;10.97;;;10.60;79.70;;;;;;5016330;28;20715;-90
2021/10/18 01:52:09;;;;;;;16.83;11.00;;;10.60;79.40;;;;;;5015886;28;20787;-91
2021/10/18 01:54:35;;;;;;;19.70;10.57;;;10.60;79.60;;;;;;5015727;28;20203;-90
2021/10/18 01:57:00;;;;;;;14.83;9.93;;;10.50;79.60;;;;;;5016122;28;20181;-90
2021/10/18 01:59:26;;;;;;;17.53;10.40;;;10.60;79.10;;;;;;5033385;28;20176;-90
2021/10/18 02:01:52;;;;;;;17.60;11.23;;;10.60;79.00;;;;;;5015633;28;20667;-90
2021/10/18 02:04:17;;;;;;;17.20;11.40;;;10.50;78.90;;;;;;5033373;28;20199;-90
2021/10/18 02:06:43;;;;;;;16.70;10.90;;;10.60;78.90;;;;;;5033378;28;20180;-90
2021/10/18 02:09:09;;;;;;;15.73;11.87;;;10.60;78.60;;;;;;5033473;28;20236;-90
2021/10/18 02:11:34;;;;;;;21.43;11.77;;;10.50;78.80;;;;;;5033389;28;20181;-90
2021/10/18 02:14:00;;;;;;;20.40;11.63;;;10.50;79.00;;;;;;5033270;28;20223;-90
2021/10/18 02:16:26;;;;;;;16.10;10.93;;;10.50;79.10;;;;;;5015864;28;20210;-90
2021/10/18 02:18:52;;;;;;;15.10;11.10;;;10.40;79.30;;;;;;5033232;28;20203;-90
2021/10/18 02:21:17;;;;;;;20.30;11.97;;;10.40;79.40;;;;;;5015526;28;20295;-90
2021/10/18 02:23:43;;;;;;;13.87;11.37;;;10.40;79.60;;;;;;5033354;28;20227;-90
2021/10/18 02:26:09;;;;;;;18.20;11.63;;;10.40;79.60;;;;;;5033122;28;20174;-90
2021/10/18 02:28:34;;;;;;;18.30;11.30;;;10.40;79.60;;;;;;5016460;28;20234;-90
2021/10/18 02:31:00;;;;;;;17.63;12.33;;;10.40;79.80;;;;;;5015469;28;20173;-91
2021/10/18 02:33:26;;;;;;;19.17;12.20;;;10.40;79.90;;;;;;5015430;28;20283;-91
2021/10/18 02:35:51;;;;;;;22.27;12.57;;;10.40;80.10;;;;;;5036390;28;20263;-91
2021/10/18 02:38:17;;;;;;;18.00;11.77;;;10.40;80.10;;;;;;5020357;28;20183;-91
2021/10/18 02:40:43;;;;;;;16.87;12.33;;;10.50;79.70;;;;;;5037229;28;20200;-91
2021/10/18 02:43:08;;;;;;;15.87;12.13;;;10.50;80.10;;;;;;5037249;28;20538;-91
2021/10/18 02:45:34;;;;;;;23.77;12.40;;;10.40;80.20;;;;;;5020121;28;20175;-91
2021/10/18 02:47:59;;;;;;;16.00;12.03;;;10.50;80.10;;;;;;5019250;28;20258;-90
2021/10/18 02:50:25;;;;;;;17.13;12.00;;;10.60;79.90;;;;;;5019217;28;20227;-91
2021/10/18 02:52:51;;;;;;;17.63;11.50;;;10.60;79.40;;;;;;5036844;28;20245;-91
2021/10/18 02:55:17;;;;;;;17.07;11.93;;;10.60;79.50;;;;;;5036737;28;20200;-91
2021/10/18 02:57:42;;;;;;;19.13;11.77;;;10.60;79.60;;;;;;5019365;28;20264;-91
2021/10/18 03:00:08;;;;;;;18.27;11.57;;;10.60;79.90;;;;;;5036692;28;20200;-91
2021/10/18 03:02:34;;;;;;;18.50;12.83;;;10.60;79.90;;;;;;5018917;28;20180;-91
2021/10/18 03:05:00;;;;;;;20.60;12.90;;;10.60;80.00;;;;;;5036546;28;20188;-90
2021/10/18 03:07:25;;;;;;;18.57;12.80;;;10.70;79.60;;;;;;5018772;28;20172;-90
2021/10/18 03:09:51;;;;;;;17.03;11.73;;;10.70;79.70;;;;;;5036543;28;20637;-90
2021/10/18 03:12:17;;;;;;;21.70;10.97;;;10.60;79.90;;;;;;5036738;28;20247;-90
2021/10/18 03:14:42;;;;;;;16.33;11.30;;;10.70;79.50;;;;;;5036664;28;20266;-91
2021/10/18 03:17:08;;;;;;;16.33;9.50;;;10.70;79.60;;;;;;5019652;28;20271;-90
2021/10/18 03:19:33;;;;;;;21.67;12.00;;;10.70;79.40;;;;;;5018618;28;20188;-90
2021/10/18 03:21:59;;;;;;;17.10;11.40;;;10.70;79.30;;;;;;5036285;28;20258;-91
2021/10/18 03:24:25;;;;;;;20.17;11.60;;;10.70;79.40;;;;;;5036205;28;20192;-90
2021/10/18 03:26:50;;;;;;;17.63;11.77;;;10.80;79.20;;;;;;5018586;28;20180;-91
2021/10/18 03:29:16;;;;;;;15.27;11.20;;;10.70;79.10;;;;;;5036107;28;20208;-90
2021/10/18 03:31:41;;;;;;;14.97;11.33;;;10.80;78.90;;;;;;5018529;28;20185;-91
2021/10/18 03:34:07;;;;;;;23.00;11.03;;;10.70;79.10;;;;;;5036148;28;20196;-90
2021/10/18 03:36:33;;;;;;;19.70;11.50;;;10.80;79.00;;;;;;5036045;28;20623;-90
2021/10/18 03:38:59;;;;;;;17.77;11.40;;;10.80;78.40;;;;;;5018254;28;20177;-90
2021/10/18 03:41:24;;;;;;;20.23;12.53;;;10.90;78.20;;;;;;5035922;28;20266;-91
2021/10/18 03:43:50;;;;;;;19.03;12.77;;;10.90;78.40;;;;;;5018339;28;20739;-91
2021/10/18 03:46:15;;;;;;;21.33;11.90;;;10.90;78.70;;;;;;5017452;28;20180;-91
2021/10/18 03:48:41;;;;;;;19.00;12.20;;;10.80;78.80;;;;;;5035850;28;20176;-90
2021/10/18 03:51:07;;;;;;;22.10;12.50;;;10.80;79.40;;;;;;5018072;28;20268;-90
2021/10/18 03:53:33;;;;;;;18.00;12.40;;;10.80;79.10;;;;;;5035954;28;20227;-90
2021/10/18 03:55:59;;;;;;;22.80;12.93;;;10.80;79.20;;;;;;5017948;28;20216;-90
2021/10/18 03:58:24;;;;;;;21.63;12.83;;;10.80;79.20;;;;;;5035710;28;20209;-91
2021/10/18 04:00:50;;;;;;;19.97;12.47;;;10.80;79.50;;;;;;5035870;28;20200;-91
2021/10/18 04:03:16;;;;;;;18.83;12.43;;;10.80;79.10;;;;;;5035489;28;20173;-91
2021/10/18 04:05:41;;;;;;;21.13;13.43;;;10.90;79.00;;;;;;5035819;28;20252;-90
2021/10/18 04:08:07;;;;;;;18.00;12.03;;;10.80;79.30;;;;;;5035738;28;20216;-91
2021/10/18 04:10:33;;;;;;;21.33;13.47;;;10.80;79.50;;;;;;5035477;28;20176;-90
2021/10/18 04:13:02;;;;;;;19.93;13.87;;;10.80;79.50;;;;;;5035309;28;20180;-91
2021/10/18 04:15:28;;;;;;;19.90;13.47;;;10.80;79.80;;;;;;5035402;28;20187;-90
2021/10/18 04:17:54;;;;;;;20.17;13.20;;;10.90;79.40;;;;;;5017486;28;20180;-90
2021/10/18 04:20:20;;;;;;;16.33;12.40;;;10.90;79.40;;;;;;5035227;28;20196;-90
2021/10/18 04:22:48;;;;;;;16.20;11.77;;;10.90;79.40;;;;;;5018060;28;20246;-90
2021/10/18 04:25:15;;;;;;;20.03;12.03;;;10.90;78.80;;;;;;5035378;28;20205;-90
2021/10/18 04:27:41;;;;;;;21.87;12.47;;;10.90;79.20;;;;;;5017559;28;20527;-90
2021/10/18 04:30:07;;;;;;;23.57;12.60;;;10.80;79.20;;;;;;5035043;28;20168;-90
2021/10/18 04:32:33;;;;;;;16.93;11.80;;;10.80;79.40;;;;;;5034953;28;20262;-90
2021/10/18 04:34:58;;;;;;;23.37;13.97;;;10.80;79.00;;;;;;5034929;28;20228;-90
2021/10/18 04:37:24;;;;;;;20.27;12.33;;;10.80;79.40;;;;;;5034940;28;20235;-90
2021/10/18 04:39:50;;;;;;;20.00;13.17;;;10.80;79.30;;;;;;5017069;28;20255;-91
2021/10/18 04:42:15;;;;;;;21.00;12.93;;;10.80;79.70;;;;;;5017109;28;20271;-91
2021/10/18 04:44:41;;;;;;;17.03;13.10;;;10.70;80.10;;;;;;5017015;28;20220;-90
2021/10/18 04:47:07;;;;;;;24.63;14.10;;;10.70;80.20;;;;;;5017909;28;20576;-90
2021/10/18 04:49:32;;;;;;;26.43;14.60;;;10.70;80.30;;;;;;5034850;28;20211;-90
2021/10/18 04:51:58;;;;;;;19.43;13.50;;;10.70;79.90;;;;;;5034885;28;20173;-90
2021/10/18 04:54:24;;;;;;;17.53;12.57;;;10.70;80.00;;;;;;5016837;28;20204;-90
2021/10/18 04:56:49;;;;;;;18.13;12.73;;;10.70;79.80;;;;;;5034472;28;20229;-90
2021/10/18 04:59:15;;;;;;;18.53;12.63;;;10.70;79.90;;;;;;5017870;28;20181;-90
2021/10/18 05:01:40;;;;;;;21.40;13.33;;;10.70;79.50;;;;;;5034643;28;20664;-90
2021/10/18 05:04:07;;;;;;;20.43;13.87;;;10.80;80.00;;;;;;5034535;28;20619;-90
2021/10/18 05:06:33;;;;;;;17.97;12.87;;;10.70;79.70;;;;;;5034372;28;20180;-90
2021/10/18 05:08:58;;;;;;;20.67;12.93;;;10.80;79.50;;;;;;5016554;28;20177;-90
2021/10/18 05:11:24;;;;;;;20.73;13.33;;;10.70;79.90;;;;;;5034248;28;20177;-90
2021/10/18 05:13:50;;;;;;;21.90;13.13;;;10.70;80.20;;;;;;5016328;28;20220;-91
2021/10/18 05:16:15;;;;;;;19.83;13.13;;;10.70;80.20;;;;;;5034152;28;20254;-90
2021/10/18 05:18:41;;;;;;;23.27;12.70;;;10.70;80.10;;;;;;5016490;28;20191;-91
2021/10/18 05:21:07;;;;;;;21.03;13.10;;;10.60;80.30;;;;;;5016410;28;20201;-91
2021/10/18 05:23:33;;;;;;;16.90;12.53;;;10.70;79.60;;;;;;5016331;28;20590;-90
2021/10/18 05:25:59;;;;;;;20.20;13.23;;;10.70;79.60;;;;;;5016351;28;20263;-90
2021/10/18 05:28:25;;;;;;;19.77;14.00;;;10.80;79.80;;;;;;5016318;28;20176;-90
2021/10/18 05:30:50;;;;;;;17.80;12.60;;;10.70;79.90;;;;;;5016249;28;20203;-90
2021/10/18 05:33:17;;;;;;;25.63;13.83;;;10.70;79.90;;;;;;5016163;28;20573;-90
2021/10/18 05:35:42;;;;;;;22.17;14.27;;;10.70;80.40;;;;;;5016219;28;20185;-90
2021/10/18 05:38:08;;;;;;;19.07;13.70;;;10.70;80.30;;;;;;5016216;28;20180;-90
2021/10/18 05:40:34;;;;;;;17.90;12.93;;;10.60;80.70;;;;;;5016309;28;20223;-90
2021/10/18 05:43:00;;;;;;;22.17;14.80;;;10.50;80.70;;;;;;5016074;28;20183;-90
2021/10/18 05:45:25;;;;;;;19.97;14.23;;;10.50;80.90;;;;;;5015993;28;20287;-90
2021/10/18 05:47:55;;;;;;;23.13;14.13;;;10.50;81.30;;;;;;5015963;28;20231;-90
2021/10/18 05:50:22;;;;;;;26.13;14.60;;;10.30;81.70;;;;;;5016040;28;20184;-90
2021/10/18 05:52:48;;;;;;;21.63;14.47;;;10.20;82.30;;;;;;5033554;28;20298;-90
2021/10/18 05:55:14;;;;;;;21.87;14.37;;;10.30;82.20;;;;;;5033855;28;20207;-90
2021/10/18 05:57:51;;;;;;;21.30;14.40;;;10.30;81.90;;;;;;5033705;28;20177;-90
2021/10/18 06:00:17;;;;;;;21.37;14.13;;;10.30;81.50;;;;;;5015769;28;20235;-90
2021/10/18 06:02:43;;;;;;;20.83;13.07;;;10.30;81.70;;;;;;5016048;28;20215;-90
2021/10/18 06:05:09;;;;;;;20.03;14.57;;;10.40;81.40;;;;;;5015703;28;20200;-90
2021/10/18 06:07:35;;;;;;;20.80;13.67;;;10.50;81.00;;;;;;5015763;28;20180;-90
2021/10/18 06:10:00;;;;;;;24.90;14.83;;;10.50;81.10;;;;;;5032785;28;20188;-90
2021/10/18 06:12:26;;;;;;;22.83;13.63;;;10.60;81.00;;;;;;5016666;28;20644;-90
2021/10/18 06:14:53;;;;;;;21.73;15.00;;;10.60;81.40;;;;;;5015588;28;20219;-90
2021/10/18 06:17:19;;;;;;;20.30;14.83;;;10.60;81.90;;;;;;5033275;28;20173;-90
2021/10/18 06:19:44;;;;;;;25.03;15.63;;;10.50;82.00;;;;;;5033206;28;20176;-90
2021/10/18 06:22:10;;;;;;;23.33;14.77;;;10.50;82.00;;;;;;5033261;28;20177;-90
2021/10/18 06:24:36;;;;;;;23.17;14.63;;;10.60;81.40;;;;;;5015582;28;20196;-90
2021/10/18 06:27:01;;;;;;;24.03;15.80;;;10.70;81.40;;;;;;5015600;28;20567;-90
2021/10/18 06:29:27;;;;;;;19.83;14.17;;;10.60;81.70;;;;;;5033474;28;20176;-90
2021/10/18 06:31:53;;;;;;;21.00;14.47;;;10.60;81.40;;;;;;5016245;28;20177;-90
2021/10/18 06:34:18;;;;;;;21.20;15.57;;;10.70;81.60;;;;;;5016018;28;20564;-90
2021/10/18 06:36:44;;;;;;;29.77;15.80;;;10.70;81.80;;;;;;5016059;28;20183;-90
2021/10/18 06:39:10;;;;;;;20.67;14.83;;;10.70;81.90;;;;;;5015464;28;20530;-90
2021/10/18 06:41:35;;;;;;;25.53;15.80;;;10.70;81.90;;;;;;5032944;28;20193;-90
2021/10/18 06:44:01;;;;;;;25.00;14.60;;;10.70;81.70;;;;;;5015324;28;20196;-90
2021/10/18 06:46:26;;;;;;;21.23;14.17;;;10.70;81.40;;;;;;5033059;28;20663;-90
2021/10/18 06:48:52;;;;;;;18.33;14.80;;;10.80;81.10;;;;;;5015707;28;20179;-90
2021/10/18 06:51:18;;;;;;;26.53;15.30;;;10.90;81.10;;;;;;5015259;28;20675;-90
2021/10/18 06:53:44;;;;;;;23.83;14.77;;;11.00;81.10;;;;;;5015501;28;20204;-90
2021/10/18 06:56:10;;;;;;;23.37;14.53;;;11.00;80.70;;;;;;5015608;28;20218;-90
2021/10/18 06:58:35;;;;;;;21.17;14.70;;;11.10;80.60;;;;;;5015227;28;20203;-90
2021/10/18 07:01:01;;;;;;;19.63;15.33;;;11.20;80.40;;;;;;5015988;28;20200;-90
2021/10/18 07:03:27;;;;;;;24.07;16.30;;;11.30;80.60;;;;;;5015633;28;20196;-90
2021/10/18 07:05:53;;;;;;;22.00;15.30;;;11.30;80.70;;;;;;5016130;28;20181;-90
2021/10/18 07:08:19;;;;;;;22.30;15.23;;;11.30;80.60;;;;;;5033021;28;20637;-90
2021/10/18 07:10:45;;;;;;;21.10;14.37;;;11.30;79.80;;;;;;5015982;28;20188;-90
2021/10/18 07:13:10;;;;;;;25.43;14.70;;;11.30;80.00;;;;;;5032799;28;20561;-90
2021/10/18 07:15:37;;;;;;;21.00;14.57;;;11.30;79.80;;;;;;5015248;28;20181;-90
2021/10/18 07:18:03;;;;;;;21.70;14.23;;;11.20;80.30;;;;;;5032980;28;20181;-90
2021/10/18 07:20:29;;;;;;;21.20;14.73;;;11.30;80.10;;;;;;5015827;28;20204;-90
2021/10/18 07:22:59;;;;;;;22.30;14.47;;;11.30;80.10;;;;;;5018943;28;20200;-90
2021/10/18 07:25:26;;;;;;;21.53;14.43;;;11.30;79.80;;;;;;5018623;28;20193;-90
2021/10/18 07:27:52;;;;;;;24.37;14.47;;;11.30;80.10;;;;;;5018724;28;20184;-90
2021/10/18 07:30:18;;;;;;;20.80;14.27;;;11.30;79.80;;;;;;5036163;28;20173;-90
2021/10/18 07:32:44;;;;;;;26.43;14.27;;;11.30;79.70;;;;;;5018438;28;20216;-90
2021/10/18 07:35:15;;;;;;;28.13;15.57;;;11.30;79.80;;;;;;5036037;28;20193;-90
2021/10/18 07:37:43;;;;;;;19.93;14.80;;;11.30;80.40;;;;;;5018499;28;20537;-90
2021/10/18 07:40:10;;;;;;;21.07;14.87;;;11.30;80.10;;;;;;5018603;28;20207;-90
2021/10/18 07:42:36;;;;;;;20.60;14.73;;;11.30;80.10;;;;;;5018214;28;20173;-90
2021/10/18 07:45:02;;;;;;;23.67;15.43;;;11.30;79.90;;;;;;5018160;28;20219;-91
2021/10/18 07:47:28;;;;;;;23.00;15.80;;;11.50;79.70;;;;;;5035858;28;20507;-91
2021/10/18 07:49:54;;;;;;;23.47;16.33;;;11.50;79.50;;;;;;5018114;28;20187;-91
2021/10/18 07:52:20;;;;;;;21.93;15.73;;;11.60;79.40;;;;;;5035732;28;20769;-90
2021/10/18 07:54:50;;;;;;;21.93;15.87;;;11.60;78.70;;;;;;5018040;28;20285;-90
2021/10/18 07:57:16;;;;;;;24.27;14.80;;;11.60;79.40;;;;;;5036005;28;20659;-90
2021/10/18 07:59:41;;;;;;;19.03;13.60;;;11.70;79.00;;;;;;5017876;28;20172;-90
2021/10/18 08:02:07;;;;;;;22.10;14.60;;;11.70;78.10;;;;;;5035600;28;20657;-90
2021/10/18 08:04:33;;;;;;;18.87;13.50;;;11.70;78.40;;;;;;5018148;28;20193;-90
2021/10/18 08:06:58;;;;;;;21.73;14.30;;;11.80;77.80;;;;;;5017916;28;20177;-90
2021/10/18 08:09:26;;;;;;;21.77;13.60;;;11.80;77.70;;;;;;5017818;28;20183;-91
2021/10/18 08:11:52;;;;;;;19.87;12.97;;;11.80;78.10;;;;;;5035149;28;20180;-90
2021/10/18 08:14:19;;;;;;;21.90;14.67;;;11.80;77.80;;;;;;5017279;28;20253;-89
2021/10/18 08:16:45;;;;;;;18.57;12.90;;;11.80;77.20;;;;;;5017450;28;20234;-89
2021/10/18 08:19:11;;;;;;;18.30;13.27;;;11.80;77.50;;;;;;5035554;28;20530;-89
2021/10/18 08:21:36;;;;;;;23.70;14.00;;;11.90;77.30;;;;;;5017456;28;20196;-89
2021/10/18 08:24:02;;;;;;;18.87;13.37;;;11.80;77.60;;;;;;5017745;28;20223;-90
2021/10/18 08:26:28;;;;;;;21.47;13.70;;;11.90;77.60;;;;;;5035296;28;20153;-90
2021/10/18 08:28:53;;;;;;;19.53;12.63;;;11.90;78.30;;;;;;5017499;28;20184;-90
2021/10/18 08:31:19;;;;;;;18.23;12.90;;;11.90;76.90;;;;;;5035267;28;20539;-90
2021/10/18 08:33:45;;;;;;;19.60;12.80;;;11.90;77.60;;;;;;5017233;28;20676;-90
2021/10/18 08:36:11;;;;;;;18.17;12.90;;;12.00;78.00;;;;;;5035444;28;20256;-90
2021/10/18 08:38:47;;;;;;;17.10;12.97;;;12.00;77.10;;;;;;5034927;28;20176;-89
2021/10/18 08:44:16;;;;;;;21.57;12.43;;;12.00;76.50;;;;;;5035154;28;20203;-90
2021/10/18 08:46:47;;;;;;;22.10;13.57;;;12.10;77.10;;;;;;5017205;28;20160;-90
2021/10/18 08:49:16;;;;;;;23.10;12.10;;;12.10;77.20;;;;;;5017393;28;20157;-89
2021/10/18 08:51:42;;;;;;;18.40;12.17;;;12.20;75.80;;;;;;5034674;28;20173;-90
2021/10/18 08:54:09;;;;;;;21.13;14.33;;;12.20;76.00;;;;;;5034597;28;20199;-90
2021/10/18 08:56:36;;;;;;;21.23;13.43;;;12.30;76.60;;;;;;5034604;28;20169;-90
2021/10/18 08:59:03;;;;;;;18.13;12.33;;;12.30;76.70;;;;;;5016773;28;20173;-90
2021/10/18 09:01:45;;;;;;;20.20;12.93;;;12.30;76.00;;;;;;5016808;28;20196;-90
2021/10/18 09:04:20;;;;;;;20.50;13.13;;;12.30;77.20;;;;;;5034363;28;20287;-90
2021/10/18 09:06:49;;;;;;;20.17;11.23;;;12.40;77.20;;;;;;5034443;28;20167;-90
2021/10/18 09:09:15;;;;;;;19.83;13.27;;;12.40;75.90;;;;;;5034414;28;20649;-89
2021/10/18 09:11:42;;;;;;;18.60;12.10;;;12.40;75.70;;;;;;5016626;28;20667;-89
2021/10/18 09:14:08;;;;;;;17.03;11.83;;;12.40;75.30;;;;;;5034236;28;20614;-89
2021/10/18 09:16:37;;;;;;;22.83;12.60;;;12.50;76.00;;;;;;5016550;28;20259;-89
2021/10/18 09:19:16;;;;;;;18.67;13.07;;;12.60;75.70;;;;;;5016483;28;20181;-89
2021/10/18 09:21:50;;;;;;;19.60;11.30;;;12.60;75.90;;;;;;5016417;28;20595;-89
2021/10/18 09:24:37;;;;;;;16.23;11.13;;;12.70;75.10;;;;;;5016299;28;20192;-89
2021/10/18 09:27:06;;;;;;;22.90;12.33;;;12.80;75.80;;;;;;5016550;28;20188;-89
2021/10/18 09:29:46;;;;;;;18.47;11.13;;;12.80;76.10;;;;;;5016560;28;20176;-89
2021/10/18 09:32:32;;;;;;;14.83;10.20;;;12.80;75.10;;;;;;5034249;28;20153;-89
2021/10/18 09:35:06;;;;;;;16.87;11.30;;;12.80;74.60;;;;;;5033717;28;20211;-89
2021/10/18 09:37:39;;;;;;;18.03;10.77;;;12.80;74.30;;;;;;5033839;28;20169;-89
2021/10/18 09:40:05;;;;;;;24.60;11.90;;;12.80;74.00;;;;;;5016094;28;20615;-89
2021/10/18 09:42:31;;;;;;;20.90;11.77;;;12.80;74.50;;;;;;5033673;28;20173;-89
2021/10/18 10:54:08;;;;;;;19.67;9.80;;;13.90;72.10;;;;;;5054148;28;20179;-84
2021/10/18 10:56:45;;;;;;;13.57;8.90;;;13.90;72.30;;;;;;5038711;28;20207;-83
2021/10/18 10:59:21;;;;;;;16.53;9.60;;;13.90;70.90;;;;;;5041101;28;20215;-84
2021/10/18 11:02:01;;;;;;;15.83;9.77;;;13.80;72.30;;;;;;5059532;28;20664;-85
2021/10/18 11:04:30;;;;;;;14.27;10.33;;;13.80;72.10;;;;;;5041279;28;20164;-85
2021/10/18 11:07:16;;;;;;;17.30;11.13;;;13.80;73.40;;;;;;5058352;28;20694;-85
2021/10/18 11:09:55;;;;;;;18.33;10.67;;;13.80;72.60;;;;;;5017801;28;20219;-85
2021/10/18 11:12:28;;;;;;;16.70;10.93;;;13.80;73.10;;;;;;5040034;28;20172;-84
2021/10/18 11:15:15;;;;;;;12.33;10.90;;;13.80;73.80;;;;;;5039517;28;20199;-84
2021/10/18 11:17:48;;;;;;;17.13;11.30;;;13.80;74.00;;;;;;5057709;28;20633;-84
2021/10/18 11:20:23;;;;;;;18.70;12.03;;;13.70;73.50;;;;;;5057799;28;20195;-84
2021/10/18 11:22:50;;;;;;;14.57;10.63;;;13.70;74.80;;;;;;5059013;28;20147;-85
2021/10/18 11:25:23;;;;;;;14.80;11.50;;;13.70;73.70;;;;;;5057796;28;20195;-84
2021/10/18 11:28:04;;;;;;;14.33;11.40;;;13.70;75.00;;;;;;5057490;28;20667;-84
2021/10/18 11:30:33;;;;;;;14.67;11.57;;;13.60;74.30;;;;;;5041020;28;20232;-85
2021/10/18 11:33:04;;;;;;;16.93;10.77;;;13.60;74.40;;;;;;5058165;28;20199;-85
2021/10/18 11:35:32;;;;;;;16.63;11.30;;;13.50;74.50;;;;;;5039004;28;20300;-84
2021/10/18 11:38:01;;;;;;;13.90;11.10;;;13.60;74.10;;;;;;5057239;28;20177;-84
2021/10/18 11:40:31;;;;;;;19.87;11.33;;;13.60;74.80;;;;;;5057795;28;20200;-85
2021/10/18 11:43:03;;;;;;;16.37;12.37;;;13.60;74.40;;;;;;5057999;28;20168;-84
2021/10/18 11:45:35;;;;;;;16.80;12.50;;;13.60;75.90;;;;;;5058919;28;20184;-85
2021/10/18 11:48:24;;;;;;;16.00;11.23;;;13.60;75.70;;;;;;5039269;28;20171;-84
2021/10/18 11:50:59;;;;;;;18.37;12.17;;;13.60;75.70;;;;;;5058001;28;20629;-85
2021/10/18 11:53:28;;;;;;;16.17;11.47;;;13.60;74.90;;;;;;5057778;28;20175;-84
2021/10/18 11:55:59;;;;;;;16.80;12.53;;;13.60;75.30;;;;;;5039400;28;20232;-85
2021/10/18 11:58:34;;;;;;;15.90;11.37;;;13.60;74.70;;;;;;5056902;28;20214;-84
2021/10/18 12:01:05;;;;;;;15.70;11.90;;;13.60;74.40;;;;;;5039060;28;20585;-84
2021/10/18 12:03:33;;;;;;;14.73;11.97;;;13.60;74.60;;;;;;5058035;28;20187;-84
2021/10/18 12:06:01;;;;;;;17.40;11.73;;;13.60;75.30;;;;;;5056841;28;20227;-84
2021/10/18 12:08:32;;;;;;;19.17;13.20;;;13.50;74.90;;;;;;5038562;28;20183;-84
2021/10/18 12:10:59;;;;;;;16.40;12.07;;;13.60;75.00;;;;;;5039174;28;20191;-84
2021/10/18 12:13:30;;;;;;;17.20;11.63;;;13.60;74.70;;;;;;5057788;28;20168;-85
2021/10/18 12:16:08;;;;;;;16.73;12.13;;;13.70;73.90;;;;;;5038844;28;20722;-84
2021/10/18 12:18:44;;;;;;;20.00;12.43;;;13.70;75.50;;;;;;5055292;28;20168;-85
2021/10/18 12:21:13;;;;;;;17.00;11.63;;;13.70;75.10;;;;;;5054870;28;20229;-85
2021/10/18 12:24:04;;;;;;;16.47;11.73;;;13.80;74.70;;;;;;5037090;28;20180;-84
2021/10/18 12:26:54;;;;;;;15.30;11.30;;;13.90;74.00;;;;;;5054826;28;20195;-84
2021/10/18 12:29:23;;;;;;;19.40;11.03;;;14.00;74.30;;;;;;5029816;28;20195;-84
2021/10/18 12:32:03;;;;;;;18.83;11.77;;;14.00;73.50;;;;;;5054825;28;20218;-84
2021/10/18 12:34:29;;;;;;;20.40;12.77;;;14.10;74.50;;;;;;5036830;28;20251;-84
2021/10/18 12:37:08;;;;;;;15.77;12.60;;;14.20;75.20;;;;;;5036711;28;20676;-85
2021/10/18 12:39:55;;;;;;;21.23;12.67;;;14.20;74.20;;;;;;5036696;28;20179;-84
2021/10/18 12:42:20;;;;;;;20.57;12.57;;;14.30;74.10;;;;;;5054770;28;20164;-84
2021/10/18 12:44:48;;;;;;;23.67;13.80;;;14.40;74.00;;;;;;5036561;28;20176;-85
2021/10/18 12:47:24;;;;;;;15.57;11.80;;;14.30;73.30;;;;;;5036477;28;20608;-84
2021/10/18 12:50:13;;;;;;;17.50;12.60;;;14.40;73.00;;;;;;5054389;28;20543;-84
2021/10/18 12:52:41;;;;;;;18.40;12.40;;;14.30;73.20;;;;;;5036464;28;20171;-85
2021/10/18 12:55:10;;;;;;;13.73;11.20;;;14.50;73.90;;;;;;5054257;28;20183;-84
2021/10/18 12:57:45;;;;;;;16.73;12.40;;;14.60;74.30;;;;;;5036382;28;20259;-85
2021/10/18 13:00:11;;;;;;;18.23;11.47;;;14.70;73.10;;;;;;5036262;28;20195;-85
2021/10/18 13:02:38;;;;;;;21.93;13.17;;;14.60;73.10;;;;;;5036264;28;20237;-85
2021/10/18 13:05:17;;;;;;;15.50;12.07;;;14.50;72.90;;;;;;5055002;28;20172;-84
2021/10/18 13:07:48;;;;;;;20.63;12.13;;;14.50;73.90;;;;;;5038781;28;20168;-84
2021/10/18 13:10:15;;;;;;;19.37;12.57;;;14.40;73.90;;;;;;5056933;28;20631;-84
2021/10/18 13:12:41;;;;;;;17.67;12.00;;;14.30;74.00;;;;;;5038723;28;20182;-84
2021/10/18 13:15:08;;;;;;;15.90;11.93;;;14.30;73.70;;;;;;5055827;28;20521;-83
2021/10/18 13:17:35;;;;;;;17.70;12.63;;;14.30;74.60;;;;;;5038149;28;20230;-84
2021/10/18 13:20:00;;;;;;;18.73;12.17;;;14.30;74.10;;;;;;5038268;28;20182;-84
2021/10/18 13:22:26;;;;;;;18.57;12.57;;;14.30;75.00;;;;;;5056238;28;20223;-84
2021/10/18 13:24:52;;;;;;;18.30;10.93;;;14.30;74.80;;;;;;5055743;28;20171;-84
2021/10/18 13:27:19;;;;;;;19.80;11.33;;;14.30;74.70;;;;;;5055529;28;20246;-84
2021/10/18 13:29:45;;;;;;;19.40;11.80;;;14.30;73.50;;;;;;5055261;28;20176;-84
2021/10/18 13:32:12;;;;;;;24.27;11.13;;;14.20;74.40;;;;;;5036704;28;20176;-84
2021/10/18 13:34:40;;;;;;;16.37;11.57;;;14.20;73.80;;;;;;5036585;28;20176;-84
2021/10/18 13:37:06;;;;;;;14.17;10.67;;;14.20;74.30;;;;;;5036457;28;20665;-84
2021/10/18 13:39:31;;;;;;;16.87;11.83;;;14.10;73.70;;;;;;5054543;28;20202;-84
2021/10/18 13:41:57;;;;;;;14.43;11.33;;;14.10;75.00;;;;;;5036536;28;20675;-84
2021/10/18 13:44:23;;;;;;;15.53;10.60;;;14.10;74.40;;;;;;5055210;28;20194;-85